createdAt,value
2019-01-23T00:01:31.926Z,-4.91
2019-01-23T00:04:05.355Z,-5.00
2019-01-23T00:06:38.156Z,-4.93
2019-01-23T00:09:10.646Z,-4.88
2019-01-23T00:11:47.506Z,-4.83
2019-01-23T00:14:20.268Z,-4.76
2019-01-23T00:16:52.879Z,-4.70
2019-01-23T00:19:25.593Z,-4.72
2019-01-23T00:21:58.352Z,-4.68
2019-01-23T00:24:31.117Z,-4.60
2019-01-23T00:27:03.924Z,-4.61
2019-01-23T00:29:36.583Z,-4.62
2019-01-23T00:32:09.325Z,-4.61
2019-01-23T00:34:43.310Z,-4.63
2019-01-23T00:37:15.965Z,-4.48
2019-01-23T00:39:48.642Z,-4.55
2019-01-23T00:42:21.367Z,-4.58
2019-01-23T00:44:54.063Z,-4.53
2019-01-23T00:47:26.779Z,-4.46
2019-01-23T00:49:59.450Z,-4.36
2019-01-23T00:52:32.174Z,-4.28
2019-01-23T00:55:06.614Z,-4.25
2019-01-23T00:57:39.518Z,-4.22
2019-01-23T01:00:24.549Z,-4.12
2019-01-23T01:02:57.802Z,-4.07
2019-01-23T01:05:30.570Z,-4.07
2019-01-23T01:08:03.552Z,-3.91
2019-01-23T01:10:36.166Z,-3.87
2019-01-23T01:13:08.815Z,-3.88
2019-01-23T01:15:41.512Z,-3.93
2019-01-23T01:18:14.257Z,-3.99
2019-01-23T01:20:46.958Z,-4.02
2019-01-23T01:23:19.604Z,-4.03
2019-01-23T01:25:52.270Z,-3.96
2019-01-23T01:28:24.911Z,-3.81
2019-01-23T01:30:57.592Z,-3.86
2019-01-23T01:33:33.946Z,-3.85
2019-01-23T01:36:04.739Z,-3.82
2019-01-23T01:38:37.458Z,-3.78
2019-01-23T01:41:10.107Z,-3.76
2019-01-23T01:43:42.779Z,-3.62
2019-01-23T01:46:15.335Z,-3.65
2019-01-23T01:48:48.001Z,-3.60
2019-01-23T01:51:20.696Z,-3.56
2019-01-23T01:53:53.329Z,-3.48
2019-01-23T01:56:26.151Z,-3.54
2019-01-23T01:59:02.700Z,-3.63
2019-01-23T02:01:33.213Z,-3.67
2019-01-23T02:04:06.132Z,-3.56
2019-01-23T02:06:38.778Z,-3.56
2019-01-23T02:09:11.939Z,-3.56
2019-01-23T02:11:44.526Z,-3.49
2019-01-23T02:14:17.202Z,-3.49
2019-01-23T02:16:49.908Z,-3.48
2019-01-23T02:19:22.697Z,-3.42
2019-01-23T02:21:55.353Z,-3.44
2019-01-23T02:24:28.098Z,-3.38
2019-01-23T02:27:00.957Z,-3.39
2019-01-23T02:29:33.752Z,-3.42
2019-01-23T02:32:06.352Z,-3.49
2019-01-23T02:34:39.109Z,-3.53
2019-01-23T02:37:11.690Z,-3.43
2019-01-23T02:39:44.284Z,-3.46
2019-01-23T02:42:16.861Z,-3.43
2019-01-23T02:44:49.525Z,-3.37
2019-01-23T02:47:22.180Z,-3.43
2019-01-23T02:49:54.867Z,-3.41
2019-01-23T02:52:27.544Z,-3.26
2019-01-23T02:55:00.400Z,-3.17
2019-01-23T02:57:33.004Z,-3.15
2019-01-23T03:00:08.173Z,-3.15
2019-01-23T03:02:41.027Z,-3.23
2019-01-23T03:05:16.737Z,-3.32
2019-01-23T03:07:49.639Z,-3.38
2019-01-23T03:10:23.134Z,-3.32
2019-01-23T03:12:55.882Z,-3.35
2019-01-23T03:15:28.485Z,-3.25
2019-01-23T03:18:01.067Z,-3.19
2019-01-23T03:20:33.700Z,-3.17
2019-01-23T03:23:06.490Z,-3.18
2019-01-23T03:25:39.107Z,-3.06
2019-01-23T03:28:11.781Z,-3.06
2019-01-23T03:30:44.479Z,-3.17
2019-01-23T03:33:17.076Z,-3.25
2019-01-23T03:35:50.123Z,-3.29
2019-01-23T03:38:22.761Z,-3.22
2019-01-23T03:40:55.455Z,-3.21
2019-01-23T03:43:28.191Z,-3.22
2019-01-23T03:46:00.781Z,-3.24
2019-01-23T03:48:33.571Z,-3.22
2019-01-23T03:51:06.269Z,-3.33
2019-01-23T03:53:38.874Z,-3.29
2019-01-23T03:56:11.835Z,-3.30
2019-01-23T03:58:44.510Z,-3.31
2019-01-23T04:01:17.206Z,-3.23
2019-01-23T04:03:49.931Z,-3.23
2019-01-23T04:06:22.562Z,-3.26
2019-01-23T04:08:55.328Z,-3.21
2019-01-23T04:11:28.010Z,-3.22
2019-01-23T04:14:00.631Z,-3.22
2019-01-23T04:16:33.265Z,-3.20
2019-01-23T04:19:05.928Z,-3.25
2019-01-23T04:21:38.649Z,-3.12
2019-01-23T04:24:11.301Z,-3.11
2019-01-23T04:26:44.004Z,-3.05
2019-01-23T04:29:16.776Z,-3.01
2019-01-23T04:31:49.466Z,-2.96
2019-01-23T04:34:22.020Z,-2.96
2019-01-23T04:36:54.636Z,-2.92
2019-01-23T04:39:27.354Z,-2.88
2019-01-23T04:41:59.999Z,-2.82
2019-01-23T04:44:32.787Z,-2.73
2019-01-23T04:47:05.482Z,-2.74
2019-01-23T04:49:38.078Z,-2.73
2019-01-23T04:52:24.251Z,-2.66
2019-01-23T04:54:56.858Z,-2.63
2019-01-23T04:57:29.478Z,-2.64
2019-01-23T05:00:02.066Z,-2.76
2019-01-23T05:02:34.640Z,-2.89
2019-01-23T05:05:09.514Z,-2.79
2019-01-23T05:07:42.338Z,-2.79
2019-01-23T05:10:15.422Z,-2.84
2019-01-23T05:12:48.137Z,-2.78
2019-01-23T05:15:20.834Z,-2.84
2019-01-23T05:17:53.478Z,-2.90
2019-01-23T05:20:26.352Z,-2.90
2019-01-23T05:22:58.983Z,-2.98
2019-01-23T05:25:31.633Z,-3.05
2019-01-23T05:28:04.425Z,-3.08
2019-01-23T05:30:37.065Z,-3.07
2019-01-23T05:33:09.728Z,-3.04
2019-01-23T05:35:42.405Z,-3.06
2019-01-23T05:38:15.222Z,-3.17
2019-01-23T05:40:47.920Z,-3.13
2019-01-23T05:43:20.702Z,-3.27
2019-01-23T05:45:53.883Z,-3.39
2019-01-23T05:48:26.443Z,-3.43
2019-01-23T05:50:59.111Z,-3.52
2019-01-23T05:53:31.847Z,-3.53
2019-01-23T05:56:04.487Z,-3.58
2019-01-23T05:58:37.215Z,-3.54
2019-01-23T06:01:11.858Z,-3.46
2019-01-23T06:03:44.562Z,-3.43
2019-01-23T06:06:17.312Z,-3.40
2019-01-23T06:08:50.007Z,-3.41
2019-01-23T06:11:22.775Z,-3.35
2019-01-23T06:13:55.566Z,-3.37
2019-01-23T06:16:28.271Z,-3.23
2019-01-23T06:19:09.201Z,-3.27
2019-01-23T06:21:41.900Z,-3.25
2019-01-23T06:24:14.815Z,-3.27
2019-01-23T06:26:47.473Z,-3.27
2019-01-23T06:29:20.151Z,-3.26
2019-01-23T06:31:52.802Z,-3.23
2019-01-23T06:34:25.480Z,-3.19
2019-01-23T06:36:58.384Z,-3.14
2019-01-23T06:39:31.032Z,-3.12
2019-01-23T06:42:03.650Z,-3.21
2019-01-23T06:44:36.277Z,-3.28
2019-01-23T06:47:08.873Z,-3.33
2019-01-23T06:49:41.590Z,-3.31
2019-01-23T06:52:14.477Z,-3.32
2019-01-23T06:54:47.144Z,-3.26
2019-01-23T06:57:19.951Z,-3.23
2019-01-23T06:59:52.521Z,-3.16
2019-01-23T07:02:25.185Z,-3.19
2019-01-23T07:04:58.160Z,-3.20
2019-01-23T07:07:30.981Z,-3.22
2019-01-23T07:10:03.680Z,-3.18
2019-01-23T07:12:36.509Z,-3.17
2019-01-23T07:15:11.735Z,-3.16
2019-01-23T07:17:44.464Z,-3.17
2019-01-23T07:20:21.612Z,-3.13
2019-01-23T07:22:54.473Z,-3.06
2019-01-23T07:25:28.969Z,-3.02
2019-01-23T07:28:01.625Z,-3.05
2019-01-23T07:30:49.523Z,-2.93
2019-01-23T07:33:22.217Z,-3.02
2019-01-23T07:35:54.798Z,-3.07
2019-01-23T07:38:27.522Z,-3.15
2019-01-23T07:41:00.117Z,-3.14
2019-01-23T07:43:32.804Z,-3.04
2019-01-23T07:46:05.554Z,-3.12
2019-01-23T07:48:38.297Z,-3.19
2019-01-23T07:51:10.924Z,-3.29
2019-01-23T07:53:43.550Z,-3.22
2019-01-23T07:56:16.415Z,-3.14
2019-01-23T07:58:49.040Z,-3.16
2019-01-23T08:01:21.842Z,-3.11
2019-01-23T08:03:55.151Z,-3.10
2019-01-23T08:06:28.055Z,-3.02
2019-01-23T08:09:00.746Z,-2.83
2019-01-23T08:11:33.594Z,-2.88
2019-01-23T08:14:07.116Z,-2.88
2019-01-23T08:16:39.744Z,-2.74
2019-01-23T08:19:12.413Z,-2.69
2019-01-23T08:21:45.045Z,-2.34
2019-01-23T08:24:17.804Z,-1.88
2019-01-23T08:26:50.365Z,-1.36
2019-01-23T08:29:23.058Z,-1.76
2019-01-23T08:31:55.704Z,-1.79
2019-01-23T08:34:28.437Z,-1.88
2019-01-23T08:37:01.871Z,-2.44
2019-01-23T08:39:34.514Z,-2.53
2019-01-23T08:42:08.353Z,-2.61
2019-01-23T08:44:41.020Z,-2.30
2019-01-23T08:47:13.594Z,-0.91
2019-01-23T08:49:46.294Z,0.24
2019-01-23T08:52:18.979Z,1.59
2019-01-23T08:54:51.627Z,2.27
2019-01-23T08:57:24.207Z,2.69
2019-01-23T08:59:56.936Z,3.99
2019-01-23T09:02:29.677Z,4.90
2019-01-23T09:05:02.461Z,3.43
2019-01-23T09:07:35.091Z,2.70
2019-01-23T09:10:12.470Z,3.56
2019-01-23T09:12:45.185Z,4.02
2019-01-23T09:15:17.909Z,4.32
2019-01-23T09:17:50.793Z,3.12
2019-01-23T09:20:23.525Z,2.49
2019-01-23T09:22:56.186Z,1.73
2019-01-23T09:25:29.210Z,0.75
2019-01-23T09:28:01.848Z,0.09
2019-01-23T09:31:00.207Z,0.78
2019-01-23T09:33:50.197Z,1.88
2019-01-23T09:37:12.295Z,2.50
2019-01-23T09:40:31.998Z,2.87
2019-01-23T09:44:22.613Z,2.73
2019-01-23T09:47:10.301Z,3.36
2019-01-23T09:50:41.134Z,3.30
2019-01-23T09:54:04.329Z,4.32
2019-01-23T09:56:37.364Z,4.11
2019-01-23T09:59:10.008Z,3.79
2019-01-23T10:01:42.710Z,3.88
2019-01-23T10:04:15.393Z,4.35
2019-01-23T10:06:48.042Z,5.00
2019-01-23T10:09:23.454Z,6.09
2019-01-23T10:11:56.091Z,6.03
2019-01-23T10:14:28.748Z,6.92
2019-01-23T10:17:01.338Z,7.25
2019-01-23T10:19:34.114Z,6.17
2019-01-23T10:22:06.748Z,7.37
2019-01-23T10:24:39.485Z,6.77
2019-01-23T10:27:12.195Z,7.50
2019-01-23T10:29:46.955Z,7.64
2019-01-23T10:32:19.718Z,7.51
2019-01-23T10:34:52.369Z,6.37
2019-01-23T10:37:25.034Z,7.30
2019-01-23T10:39:57.647Z,7.26
2019-01-23T10:42:30.214Z,6.72
2019-01-23T10:45:02.970Z,7.59
2019-01-23T10:47:35.581Z,6.72
2019-01-23T10:50:09.962Z,6.99
2019-01-23T10:52:42.871Z,7.62
2019-01-23T10:55:15.842Z,7.02
2019-01-23T10:57:48.619Z,7.14
2019-01-23T11:00:27.556Z,7.44
2019-01-23T11:03:00.155Z,8.46
2019-01-23T11:05:32.947Z,8.13
2019-01-23T11:08:06.261Z,8.10
2019-01-23T11:10:38.973Z,7.18
2019-01-23T11:13:11.590Z,7.75
2019-01-23T11:15:44.248Z,8.05
2019-01-23T11:18:16.996Z,8.34
2019-01-23T11:20:50.699Z,8.31
2019-01-23T11:23:22.907Z,8.78
2019-01-23T11:25:55.575Z,8.80
2019-01-23T11:28:28.200Z,8.20
2019-01-23T11:31:00.872Z,8.74
2019-01-23T11:33:33.590Z,8.79
2019-01-23T11:36:06.245Z,8.62
2019-01-23T11:38:40.026Z,9.13
2019-01-23T11:41:12.707Z,8.89
2019-01-23T11:43:45.349Z,9.11
2019-01-23T11:46:18.133Z,9.19
2019-01-23T11:48:50.842Z,9.26
2019-01-23T11:51:23.504Z,9.08
2019-01-23T11:53:57.511Z,8.96
2019-01-23T11:56:30.233Z,9.48
2019-01-23T11:59:02.947Z,9.52
2019-01-23T12:01:35.731Z,9.21
2019-01-23T12:04:08.396Z,7.85
2019-01-23T12:06:40.981Z,8.19
2019-01-23T12:09:14.013Z,7.81
2019-01-23T12:11:46.798Z,7.92
2019-01-23T12:14:19.457Z,7.63
2019-01-23T12:16:52.101Z,7.01
2019-01-23T12:19:24.735Z,6.37
2019-01-23T12:21:57.500Z,4.99
2019-01-23T12:24:30.210Z,4.85
2019-01-23T12:27:02.919Z,4.66
2019-01-23T12:29:35.600Z,4.65
2019-01-23T12:32:08.258Z,5.38
2019-01-23T12:34:41.045Z,5.68
2019-01-23T12:37:13.758Z,6.53
2019-01-23T12:39:46.339Z,6.73
2019-01-23T12:42:18.981Z,7.29
2019-01-23T12:44:51.720Z,7.89
2019-01-23T12:47:24.350Z,8.18
2019-01-23T12:49:57.015Z,7.87
2019-01-23T12:52:29.679Z,6.98
2019-01-23T12:55:02.544Z,7.52
2019-01-23T12:57:35.328Z,8.27
2019-01-23T13:00:12.481Z,8.40
2019-01-23T13:02:45.288Z,8.77
2019-01-23T13:05:21.469Z,8.67
2019-01-23T13:07:54.163Z,8.45
2019-01-23T13:10:27.021Z,8.14
2019-01-23T13:12:59.743Z,8.09
2019-01-23T13:15:33.455Z,7.62
2019-01-23T13:18:06.193Z,7.31
2019-01-23T13:20:38.873Z,7.01
2019-01-23T13:23:11.601Z,6.62
2019-01-23T13:25:44.249Z,6.21
2019-01-23T13:28:17.042Z,5.67
2019-01-23T13:30:49.746Z,5.20
2019-01-23T13:33:22.407Z,4.56
2019-01-23T13:35:56.083Z,4.37
2019-01-23T13:38:28.749Z,4.21
2019-01-23T13:41:01.482Z,4.45
2019-01-23T13:43:34.110Z,4.15
2019-01-23T13:46:06.764Z,4.19
2019-01-23T13:48:39.396Z,4.14
2019-01-23T13:51:12.000Z,4.02
2019-01-23T13:53:46.241Z,4.02
2019-01-23T13:56:18.927Z,3.91
2019-01-23T13:58:51.564Z,3.84
2019-01-23T14:01:24.255Z,3.74
2019-01-23T14:03:56.920Z,3.34
2019-01-23T14:06:29.586Z,3.46
2019-01-23T14:09:02.214Z,3.18
2019-01-23T14:11:35.011Z,3.31
2019-01-23T14:14:07.882Z,2.87
2019-01-23T14:16:40.613Z,2.63
2019-01-23T14:19:13.246Z,2.39
2019-01-23T14:21:45.880Z,2.29
2019-01-23T14:24:18.478Z,1.65
2019-01-23T14:26:51.133Z,1.55
2019-01-23T14:29:23.866Z,1.36
2019-01-23T14:32:03.088Z,1.23
2019-01-23T14:34:30.927Z,1.14
2019-01-23T14:37:03.671Z,1.14
2019-01-23T14:39:36.374Z,1.10
2019-01-23T14:42:09.237Z,0.97
2019-01-23T14:44:41.815Z,0.90
2019-01-23T14:47:14.466Z,0.86
2019-01-23T14:49:47.085Z,0.78
2019-01-23T14:52:19.678Z,0.74
2019-01-23T14:54:52.479Z,0.67
2019-01-23T14:57:25.109Z,0.67
2019-01-23T14:59:57.814Z,0.65
2019-01-23T15:02:30.435Z,0.68
2019-01-23T15:05:03.166Z,0.64
2019-01-23T15:07:35.753Z,0.59
2019-01-23T15:10:13.501Z,0.61
2019-01-23T15:12:46.148Z,0.52
2019-01-23T15:15:19.467Z,0.60
2019-01-23T15:17:52.171Z,0.71
2019-01-23T15:20:31.951Z,0.47
2019-01-23T15:23:06.280Z,0.36
2019-01-23T15:25:38.952Z,0.27
2019-01-23T15:28:11.657Z,0.18
2019-01-23T15:30:44.299Z,0.10
2019-01-23T15:33:17.353Z,0.03
2019-01-23T15:35:50.048Z,-0.09
2019-01-23T15:38:22.643Z,-0.13
2019-01-23T15:40:55.306Z,-0.16
2019-01-23T15:43:28.123Z,-0.19
2019-01-23T15:46:03.011Z,-0.18
2019-01-23T15:48:35.663Z,-0.22
2019-01-23T15:51:08.289Z,-0.23
2019-01-23T15:53:40.905Z,-0.24
2019-01-23T15:56:13.630Z,-0.24
2019-01-23T15:58:46.454Z,-0.24
2019-01-23T16:01:19.235Z,-0.24
2019-01-23T16:03:51.946Z,-0.25
2019-01-23T16:06:24.643Z,-0.23
2019-01-23T16:08:57.285Z,-0.22
2019-01-23T16:11:29.950Z,-0.27
2019-01-23T16:14:02.539Z,-0.32
2019-01-23T16:16:35.237Z,-0.38
2019-01-23T16:19:07.929Z,-0.40
2019-01-23T16:21:45.626Z,-0.44
2019-01-23T16:24:15.016Z,-0.40
2019-01-23T16:26:48.324Z,-0.46
2019-01-23T16:29:20.894Z,-0.49
2019-01-23T16:31:53.693Z,-0.55
2019-01-23T16:34:26.374Z,-0.60
2019-01-23T16:36:59.013Z,-0.58
2019-01-23T16:39:31.753Z,-0.55
2019-01-23T16:42:04.554Z,-0.57
2019-01-23T16:44:37.687Z,-0.65
2019-01-23T16:47:09.868Z,-0.74
2019-01-23T16:49:42.611Z,-0.81
2019-01-23T16:52:15.398Z,-0.92
2019-01-23T16:54:48.056Z,-0.98
2019-01-23T16:57:20.762Z,-1.02
2019-01-23T16:59:53.441Z,-1.10
2019-01-23T17:02:26.187Z,-1.20
2019-01-23T17:04:59.059Z,-1.20
2019-01-23T17:07:31.634Z,-1.18
2019-01-23T17:10:04.912Z,-1.26
2019-01-23T17:12:37.696Z,-1.15
2019-01-23T17:15:15.667Z,-1.16
2019-01-23T17:17:48.860Z,-1.18
2019-01-23T17:20:40.917Z,-1.18
2019-01-23T17:23:13.547Z,-1.16
2019-01-23T17:25:46.303Z,-1.13
2019-01-23T17:28:19.363Z,-1.14
2019-01-23T17:30:52.026Z,-1.13
2019-01-23T17:33:24.709Z,-1.26
2019-01-23T17:35:57.374Z,-1.27
2019-01-23T17:38:29.175Z,-1.28
2019-01-23T17:41:01.919Z,-1.36
2019-01-23T17:43:35.705Z,-1.41
2019-01-23T17:46:08.499Z,-1.36
2019-01-23T17:48:41.161Z,-1.36
2019-01-23T17:51:13.812Z,-1.31
2019-01-23T17:53:46.774Z,-1.40
2019-01-23T17:56:19.559Z,-1.44
2019-01-23T17:58:52.240Z,-1.53
2019-01-23T18:01:24.901Z,-1.53
2019-01-23T18:03:57.607Z,-1.58
2019-01-23T18:06:30.212Z,-1.58
2019-01-23T18:09:02.944Z,-1.58
2019-01-23T18:11:35.676Z,-1.62
2019-01-23T18:14:08.529Z,-1.66
2019-01-23T18:16:41.269Z,-1.66
2019-01-23T18:19:13.975Z,-1.67
2019-01-23T18:21:46.687Z,-1.60
2019-01-23T18:24:38.399Z,-1.64
2019-01-23T18:27:11.330Z,-1.64
2019-01-23T18:29:44.128Z,-1.62
2019-01-23T18:32:16.922Z,-1.65
2019-01-23T18:35:35.362Z,-1.53
2019-01-23T18:38:56.049Z,-1.62
2019-01-23T18:42:14.127Z,-1.61
2019-01-23T18:45:23.154Z,-1.57
2019-01-23T18:48:54.301Z,-1.63
2019-01-23T18:51:38.676Z,-1.64
2019-01-23T18:54:11.466Z,-1.72
2019-01-23T18:56:44.322Z,-1.76
2019-01-23T18:59:17.046Z,-1.72
2019-01-23T19:01:49.707Z,-1.79
2019-01-23T19:04:22.385Z,-1.77
2019-01-23T19:06:55.171Z,-1.71
2019-01-23T19:09:27.865Z,-1.73
2019-01-23T19:12:00.673Z,-1.76
2019-01-23T19:14:33.449Z,-1.75
2019-01-23T19:17:07.068Z,-1.72
2019-01-23T19:19:39.792Z,-1.70
2019-01-23T19:22:12.681Z,-1.72
2019-01-23T19:24:45.450Z,-1.74
2019-01-23T19:27:18.443Z,-1.67
2019-01-23T19:29:51.063Z,-1.69
2019-01-23T19:32:23.761Z,-1.68
2019-01-23T19:34:56.532Z,-1.64
2019-01-23T19:37:29.276Z,-1.69
2019-01-23T19:40:02.038Z,-1.66
2019-01-23T19:42:34.616Z,-1.64
2019-01-23T19:45:13.072Z,-1.64
2019-01-23T19:47:45.800Z,-1.62
2019-01-23T19:50:18.576Z,-1.58
2019-01-23T19:52:51.299Z,-1.57
2019-01-23T19:55:23.945Z,-1.60
2019-01-23T19:57:56.728Z,-1.59
2019-01-23T20:00:30.637Z,-1.58
2019-01-23T20:03:03.757Z,-1.63
2019-01-23T20:05:36.430Z,-1.57
2019-01-23T20:08:09.265Z,-1.49
2019-01-23T20:10:42.059Z,-1.41
2019-01-23T20:13:14.693Z,-1.52
2019-01-23T20:15:47.306Z,-1.62
2019-01-23T20:18:19.975Z,-1.62
2019-01-23T20:20:52.708Z,-1.60
2019-01-23T20:23:25.329Z,-1.62
2019-01-23T20:25:58.019Z,-1.47
2019-01-23T20:28:30.682Z,-1.48
2019-01-23T20:31:03.421Z,-1.43
2019-01-23T20:33:36.119Z,-1.40
2019-01-23T20:36:08.926Z,-1.42
2019-01-23T20:38:41.701Z,-1.43
2019-01-23T20:41:14.407Z,-1.53
2019-01-23T20:43:47.104Z,-1.46
2019-01-23T20:46:20.062Z,-1.45
2019-01-23T20:48:52.669Z,-1.36
2019-01-23T20:51:25.509Z,-1.37
2019-01-23T20:53:58.150Z,-1.44
2019-01-23T20:56:30.801Z,-1.38
2019-01-23T20:59:03.457Z,-1.35
2019-01-23T21:01:36.098Z,-1.43
2019-01-23T21:04:08.906Z,-1.45
2019-01-23T21:06:41.611Z,-1.45
2019-01-23T21:09:14.302Z,-1.41
2019-01-23T21:11:46.936Z,-1.39
2019-01-23T21:14:19.530Z,-1.53
2019-01-23T21:16:52.184Z,-1.58
2019-01-23T21:19:25.063Z,-1.61
2019-01-23T21:21:57.350Z,-1.62
2019-01-23T21:24:30.227Z,-1.67
2019-01-23T21:27:02.979Z,-1.78
2019-01-23T21:29:35.572Z,-1.81
2019-01-23T21:32:08.376Z,-1.77
2019-01-23T21:34:41.007Z,-1.83
2019-01-23T21:37:13.730Z,-1.78
2019-01-23T21:39:46.502Z,-1.81
2019-01-23T21:42:19.185Z,-1.82
2019-01-23T21:44:51.964Z,-1.88
2019-01-23T21:47:24.535Z,-1.84
2019-01-23T21:49:57.186Z,-1.88
2019-01-23T21:52:29.846Z,-1.84
2019-01-23T21:55:02.547Z,-1.86
2019-01-23T21:57:35.194Z,-1.85
2019-01-23T22:00:14.349Z,-1.81
2019-01-23T22:02:50.179Z,-1.79
2019-01-23T22:05:22.854Z,-1.74
2019-01-23T22:07:55.512Z,-1.81
2019-01-23T22:10:28.236Z,-1.75
2019-01-23T22:13:00.840Z,-1.73
2019-01-23T22:15:33.659Z,-1.66
2019-01-23T22:18:08.706Z,-1.68
2019-01-23T22:20:41.558Z,-1.72
2019-01-23T22:23:14.191Z,-1.75
2019-01-23T22:25:46.832Z,-1.73
2019-01-23T22:28:19.440Z,-1.80
2019-01-23T22:30:52.226Z,-1.72
2019-01-23T22:33:24.949Z,-1.86
2019-01-23T22:35:57.558Z,-1.79
2019-01-23T22:38:30.240Z,-1.83
2019-01-23T22:41:03.124Z,-1.91
2019-01-23T22:43:35.809Z,-1.90
2019-01-23T22:46:08.637Z,-1.90
2019-01-23T22:48:41.293Z,-1.91
2019-01-23T22:51:14.012Z,-1.93
2019-01-23T22:53:46.717Z,-1.88
2019-01-23T22:56:19.540Z,-1.87
2019-01-23T22:58:52.205Z,-1.92
2019-01-23T23:01:29.012Z,-1.89
2019-01-23T23:04:03.663Z,-1.94
2019-01-23T23:06:36.841Z,-2.06
2019-01-23T23:09:11.362Z,-2.20
2019-01-23T23:11:44.290Z,-2.25
2019-01-23T23:14:18.682Z,-2.30
2019-01-23T23:16:51.425Z,-2.37
2019-01-23T23:19:24.269Z,-2.37
2019-01-23T23:21:57.139Z,-2.39
2019-01-23T23:24:29.877Z,-2.37
2019-01-23T23:27:02.710Z,-2.37
2019-01-23T23:29:35.393Z,-2.39
2019-01-23T23:32:08.153Z,-2.37
2019-01-23T23:34:40.827Z,-2.39
2019-01-23T23:37:13.632Z,-2.41
2019-01-23T23:39:46.305Z,-2.47
2019-01-23T23:42:19.045Z,-2.45
2019-01-23T23:44:51.804Z,-2.51
2019-01-23T23:47:24.518Z,-2.50
2019-01-23T23:49:57.189Z,-2.39
2019-01-23T23:52:29.911Z,-2.43
2019-01-23T23:55:02.802Z,-2.36
2019-01-23T23:57:35.461Z,-2.38
